createdAt,value
2023-02-18T00:00:18.342Z,0
2023-02-18T00:05:23.553Z,0
2023-02-18T00:10:29.517Z,0
2023-02-18T00:15:35.611Z,0
2023-02-18T00:20:41.716Z,0
2023-02-18T00:25:47.790Z,0
2023-02-18T00:30:53.874Z,0
2023-02-18T00:36:00.003Z,0
2023-02-18T00:41:06.068Z,0
2023-02-18T00:46:12.153Z,0
2023-02-18T00:51:18.240Z,0
2023-02-18T00:56:24.428Z,0
2023-02-18T01:01:30.417Z,0
2023-02-18T01:06:36.509Z,0
2023-02-18T01:11:42.663Z,0
2023-02-18T01:16:48.678Z,0
2023-02-18T01:21:54.836Z,0
2023-02-18T01:27:00.894Z,0
2023-02-18T01:32:06.945Z,0
2023-02-18T01:37:12.056Z,0
2023-02-18T01:42:18.174Z,0
2023-02-18T01:47:24.222Z,0
2023-02-18T01:52:30.329Z,0
2023-02-18T01:57:36.405Z,0
2023-02-18T02:02:42.492Z,0
2023-02-18T02:07:48.578Z,0
2023-02-18T02:12:54.683Z,0
2023-02-18T02:18:00.755Z,0
2023-02-18T02:23:06.887Z,0
2023-02-18T02:28:12.935Z,0
2023-02-18T02:33:19.054Z,0
2023-02-18T02:38:25.109Z,0
2023-02-18T02:43:31.196Z,0
2023-02-18T02:48:37.286Z,0
2023-02-18T02:53:43.385Z,0
2023-02-18T02:58:49.475Z,0
2023-02-18T03:03:55.556Z,0
2023-02-18T03:09:01.645Z,0
2023-02-18T03:14:06.818Z,0
2023-02-18T03:19:12.865Z,0
2023-02-18T03:24:18.940Z,0
2023-02-18T03:29:25.030Z,0
2023-02-18T03:34:31.121Z,0
2023-02-18T03:39:37.206Z,0
2023-02-18T03:44:43.297Z,0
2023-02-18T03:49:49.391Z,0
2023-02-18T03:54:55.469Z,0
2023-02-18T04:00:01.599Z,0
2023-02-18T04:05:06.672Z,0
2023-02-18T04:10:12.776Z,0
2023-02-18T04:15:18.850Z,0
2023-02-18T04:20:24.953Z,0
2023-02-18T04:25:31.018Z,0
2023-02-18T04:30:37.114Z,0
2023-02-18T04:35:43.233Z,0
2023-02-18T04:40:49.283Z,0
2023-02-18T04:45:55.371Z,0
2023-02-18T04:51:01.472Z,0
2023-02-18T04:56:07.582Z,0
2023-02-18T05:01:13.644Z,0
2023-02-18T05:06:19.777Z,0
2023-02-18T05:11:25.895Z,0
2023-02-18T05:16:31.915Z,0
2023-02-18T05:21:38.009Z,0
2023-02-18T05:26:44.130Z,0
2023-02-18T05:31:50.192Z,0
2023-02-18T05:36:56.291Z,0
2023-02-18T05:42:02.371Z,0
2023-02-18T05:47:08.460Z,0
2023-02-18T05:52:14.544Z,0
2023-02-18T05:57:20.714Z,0
2023-02-18T06:02:26.732Z,0
2023-02-18T06:07:32.804Z,0
2023-02-18T06:12:38.968Z,0
2023-02-18T06:17:45.112Z,0
2023-02-18T06:22:51.265Z,0
2023-02-18T06:27:57.419Z,4
2023-02-18T06:33:03.583Z,4
2023-02-18T06:38:09.706Z,4
2023-02-18T06:43:15.876Z,8
2023-02-18T06:48:22.012Z,8
2023-02-18T06:53:28.158Z,12
2023-02-18T06:58:33.321Z,16
2023-02-18T07:03:39.415Z,16
2023-02-18T07:08:45.500Z,20
2023-02-18T07:13:51.597Z,20
2023-02-18T07:18:57.672Z,16
2023-02-18T07:24:02.777Z,16
2023-02-18T07:29:08.880Z,24
2023-02-18T07:34:14.956Z,32
2023-02-18T07:39:21.172Z,32
2023-02-18T07:44:27.273Z,36
2023-02-18T07:49:33.245Z,44
2023-02-18T07:54:39.434Z,84
2023-02-18T07:59:45.506Z,56
2023-02-18T08:04:51.691Z,56
2023-02-18T08:09:57.714Z,64
2023-02-18T08:15:03.682Z,56
2023-02-18T08:20:09.829Z,44
2023-02-18T08:25:15.890Z,60
2023-02-18T08:30:21.942Z,80
2023-02-18T08:35:28.032Z,52
2023-02-18T08:40:34.126Z,76
2023-02-18T08:45:40.217Z,92
2023-02-18T08:50:46.302Z,68
2023-02-18T08:55:52.420Z,56
2023-02-18T09:00:58.494Z,56
2023-02-18T09:11:10.734Z,68
2023-02-18T09:16:16.780Z,100
2023-02-18T09:21:22.827Z,100
2023-02-18T09:26:28.915Z,84
2023-02-18T09:31:35.017Z,92
2023-02-18T09:36:41.101Z,68
2023-02-18T09:41:47.200Z,80
2023-02-18T09:46:53.266Z,72
2023-02-18T09:51:59.369Z,72
2023-02-18T09:57:05.454Z,92
2023-02-18T10:02:11.530Z,64
2023-02-18T10:07:17.672Z,68
2023-02-18T10:12:23.773Z,64
2023-02-18T10:17:29.885Z,48
2023-02-18T10:22:35.010Z,52
2023-02-18T10:27:41.086Z,84
2023-02-18T10:32:47.115Z,88
2023-02-18T10:37:53.202Z,116
2023-02-18T10:42:59.284Z,124
2023-02-18T10:48:05.450Z,92
2023-02-18T10:53:11.460Z,92
2023-02-18T10:58:17.551Z,112
2023-02-18T11:03:23.637Z,108
2023-02-18T11:08:29.733Z,128
2023-02-18T11:13:35.808Z,92
2023-02-18T11:18:41.938Z,112
2023-02-18T11:23:48.093Z,88
2023-02-18T11:28:54.072Z,80
2023-02-18T11:34:00.165Z,68
2023-02-18T11:39:06.249Z,68
2023-02-18T11:44:12.364Z,92
2023-02-18T11:49:18.428Z,84
2023-02-18T11:54:24.543Z,80
2023-02-18T11:59:30.647Z,60
2023-02-18T12:04:36.726Z,68
2023-02-18T12:09:42.790Z,72
2023-02-18T12:14:48.884Z,64
2023-02-18T12:19:54.973Z,60
2023-02-18T12:25:01.066Z,68
2023-02-18T12:30:07.221Z,76
2023-02-18T12:35:13.648Z,44
2023-02-18T12:40:19.524Z,68
2023-02-18T12:45:25.695Z,104
2023-02-18T12:50:31.820Z,100
2023-02-18T12:55:38.033Z,112
2023-02-18T13:00:44.192Z,116
2023-02-18T13:05:50.285Z,72
2023-02-18T13:10:56.498Z,84
2023-02-18T13:16:02.750Z,52
2023-02-18T13:21:08.773Z,48
2023-02-18T13:26:14.979Z,68
2023-02-18T13:31:21.019Z,108
2023-02-18T13:36:27.300Z,72
2023-02-18T13:41:33.570Z,96
2023-02-18T13:46:39.843Z,64
2023-02-18T13:51:46.080Z,44
2023-02-18T13:56:52.353Z,40
2023-02-18T14:01:58.606Z,40
2023-02-18T14:07:05.005Z,32
2023-02-18T14:12:11.132Z,32
2023-02-18T14:17:17.404Z,32
2023-02-18T14:22:23.682Z,48
2023-02-18T14:27:29.919Z,56
2023-02-18T14:32:36.188Z,44
2023-02-18T14:37:42.470Z,44
2023-02-18T14:42:48.930Z,36
2023-02-18T14:47:55.435Z,24
2023-02-18T14:53:01.880Z,24
2023-02-18T14:58:08.343Z,48
2023-02-18T15:03:13.792Z,36
2023-02-18T15:08:19.128Z,60
2023-02-18T15:13:25.151Z,16
2023-02-18T15:18:31.290Z,20
2023-02-18T15:23:37.440Z,36
2023-02-18T15:28:42.597Z,64
2023-02-18T15:33:48.685Z,20
2023-02-18T15:38:54.832Z,16
2023-02-18T15:44:00.851Z,12
2023-02-18T15:49:06.950Z,8
2023-02-18T15:54:13.115Z,8
2023-02-18T15:59:18.163Z,4
2023-02-18T16:04:24.232Z,8
2023-02-18T16:09:30.338Z,4
2023-02-18T16:14:36.466Z,4
2023-02-18T16:19:42.493Z,0
2023-02-18T16:24:48.598Z,0
2023-02-18T16:29:54.680Z,0
2023-02-18T16:35:00.762Z,0
2023-02-18T16:40:06.867Z,0
2023-02-18T16:45:12.985Z,0
2023-02-18T16:50:19.034Z,0
2023-02-18T16:55:25.141Z,0
2023-02-18T17:00:31.218Z,0
2023-02-18T17:05:37.555Z,0
2023-02-18T17:10:42.410Z,0
2023-02-18T17:15:48.498Z,0
2023-02-18T17:20:54.623Z,0
2023-02-18T17:26:00.702Z,0
2023-02-18T17:31:06.822Z,0
2023-02-18T17:36:12.856Z,0
2023-02-18T17:41:18.940Z,0
2023-02-18T17:46:25.035Z,0
2023-02-18T17:51:30.190Z,0
2023-02-18T17:56:36.255Z,0
2023-02-18T18:01:41.393Z,0
2023-02-18T18:06:47.428Z,0
2023-02-18T18:11:53.510Z,0
2023-02-18T18:16:59.598Z,0
2023-02-18T18:22:05.724Z,0
2023-02-18T18:27:11.793Z,0
2023-02-18T18:32:17.887Z,0
2023-02-18T18:37:23.985Z,0
2023-02-18T18:42:30.059Z,0
2023-02-18T18:47:36.163Z,0
2023-02-18T18:52:42.312Z,0
2023-02-18T18:57:48.343Z,0
2023-02-18T19:02:54.530Z,0
2023-02-18T19:08:00.500Z,0
2023-02-18T19:13:06.598Z,0
2023-02-18T19:18:12.685Z,0
2023-02-18T19:23:18.769Z,0
2023-02-18T19:28:24.842Z,0
2023-02-18T19:33:30.952Z,0
2023-02-18T19:38:37.121Z,0
2023-02-18T19:43:43.127Z,0
2023-02-18T19:48:49.256Z,0
2023-02-18T19:53:55.330Z,0
2023-02-18T19:59:01.390Z,0
2023-02-18T20:04:07.470Z,0
2023-02-18T20:09:13.571Z,0
2023-02-18T20:14:19.656Z,0
2023-02-18T20:19:25.741Z,0
2023-02-18T20:24:31.826Z,0
2023-02-18T20:29:37.967Z,0
2023-02-18T20:34:44.031Z,0
2023-02-18T20:39:50.162Z,0
2023-02-18T20:44:56.345Z,0
2023-02-18T20:50:02.272Z,0
2023-02-18T20:55:08.416Z,0
2023-02-18T21:00:14.660Z,0
2023-02-18T21:05:20.653Z,0
2023-02-18T21:10:26.712Z,0
2023-02-18T21:15:32.874Z,0
2023-02-18T21:20:39.002Z,0
2023-02-18T21:25:45.145Z,0
2023-02-18T21:30:51.366Z,0
2023-02-18T21:35:57.445Z,0
2023-02-18T21:41:03.593Z,0
2023-02-18T21:46:09.753Z,0
2023-02-18T21:51:15.894Z,0
2023-02-18T21:56:22.121Z,0
2023-02-18T22:01:28.226Z,0
2023-02-18T22:06:34.347Z,0
2023-02-18T22:11:40.494Z,0
2023-02-18T22:16:46.769Z,0
2023-02-18T22:21:53.032Z,0
2023-02-18T22:26:59.299Z,0
2023-02-18T22:32:05.553Z,0
2023-02-18T22:37:11.864Z,0
2023-02-18T22:42:18.090Z,0
2023-02-18T22:47:24.342Z,0
2023-02-18T22:52:30.620Z,0
2023-02-18T22:57:36.885Z,0
2023-02-18T23:02:43.172Z,0
2023-02-18T23:07:49.406Z,0
2023-02-18T23:12:55.661Z,0
2023-02-18T23:18:01.934Z,0
2023-02-18T23:23:08.394Z,0
2023-02-18T23:28:14.875Z,0
2023-02-18T23:33:21.400Z,0
2023-02-18T23:38:27.811Z,0
2023-02-18T23:43:34.282Z,0
2023-02-18T23:48:40.768Z,0
2023-02-18T23:53:47.224Z,0
2023-02-18T23:58:53.686Z,0
